Time;durP1;ratioP1;P1;durP2;ratioP2;P2;SDS_P1;SDS_P2;PMS_P1;PMS_P2;Temp;Humidity;BMP_temperature;BMP_pressure;BME280_temperature;BME280_humidity;BME280_pressure;Samples;Min_cycle;Max_cycle;Signal;HPM_P1;HPM_P2
2021/05/27 00:01:29;;;;;;;3.50;2.22;;;;;;;12.20;43.79;101015.03;3539310;40;20061;-74
2021/05/27 00:03:59;;;;;;;4.88;2.42;;;;;;;12.20;43.97;101012.28;3539533;40;20038;-73
2021/05/27 00:06:35;;;;;;;4.13;2.08;;;;;;;12.20;43.88;101011.41;3547824;40;20062;-73
2021/05/27 00:09:03;;;;;;;4.25;2.42;;;;;;;12.21;43.75;101011.28;3548938;40;20054;-73
2021/05/27 00:11:32;;;;;;;3.50;2.40;;;;;;;12.20;44.32;101012.28;3548815;40;20065;-73
2021/05/27 00:14:01;;;;;;;3.60;2.08;;;;;;;12.21;44.14;101010.41;3549045;40;20117;-73
2021/05/27 00:16:31;;;;;;;3.22;2.08;;;;;;;12.21;43.74;101015.91;3548545;40;20057;-73
2021/05/27 00:18:59;;;;;;;4.38;2.60;;;;;;;12.21;44.00;101016.78;3547981;40;20404;-73
2021/05/27 00:21:27;;;;;;;3.40;2.30;;;;;;;12.21;43.90;101007.69;3547295;40;20060;-73
2021/05/27 00:23:54;;;;;;;4.80;2.40;;;;;;;12.21;44.39;101010.41;3538991;40;20057;-74
2021/05/27 00:26:22;;;;;;;3.70;2.20;;;;;;;12.22;44.17;101015.78;3545662;40;20396;-73
2021/05/27 00:28:54;;;;;;;3.78;2.58;;;;;;;12.23;44.26;101011.16;3546564;40;20324;-73
2021/05/27 00:31:22;;;;;;;4.40;2.78;;;;;;;12.23;43.82;101012.03;3548300;40;20058;-73
2021/05/27 00:33:50;;;;;;;4.18;2.28;;;;;;;12.21;43.83;101014.03;3548730;40;20418;-74
2021/05/27 00:36:18;;;;;;;4.15;2.25;;;;;;;12.21;44.21;101013.16;3550143;40;20055;-74
2021/05/27 00:38:46;;;;;;;3.80;2.35;;;;;;;12.19;44.32;101009.69;3546861;40;20057;-74
2021/05/27 00:41:14;;;;;;;4.30;2.47;;;;;;;12.19;44.06;101018.78;3548581;40;20058;-74
2021/05/27 00:43:41;;;;;;;4.32;2.40;;;;;;;12.19;44.29;101023.41;3548799;40;20094;-73
2021/05/27 00:46:19;;;;;;;4.78;2.35;;;;;;;12.21;44.51;101019.50;3548442;40;20130;-74
2021/05/27 00:48:59;;;;;;;3.55;2.28;;;;;;;12.21;44.35;101018.66;3545761;40;20072;-73
2021/05/27 00:51:31;;;;;;;3.58;2.38;;;;;;;12.19;44.00;101016.03;3541030;40;20363;-74
2021/05/27 00:53:59;;;;;;;4.18;2.47;;;;;;;12.18;44.58;101017.06;3548232;40;20136;-73
2021/05/27 00:56:27;;;;;;;3.88;2.50;;;;;;;12.20;44.37;101022.38;3545327;40;20042;-73
2021/05/27 00:58:55;;;;;;;4.00;2.60;;;;;;;12.20;44.05;101023.25;3547606;40;20049;-73
2021/05/27 01:01:24;;;;;;;3.95;2.47;;;;;;;12.20;44.25;101020.53;3547843;40;20049;-73
2021/05/27 01:03:52;;;;;;;4.45;2.88;;;;;;;12.18;44.32;101022.56;3545315;40;20046;-74
2021/05/27 01:06:20;;;;;;;4.30;2.92;;;;;;;12.18;44.14;101019.81;3544552;40;20058;-73
2021/05/27 01:08:50;;;;;;;4.22;3.10;;;;;;;12.17;44.07;101018.06;3545458;40;20140;-74
2021/05/27 01:11:23;;;;;;;4.88;3.13;;;;;;;12.16;44.27;101015.47;3535303;40;20077;-74
2021/05/27 01:13:51;;;;;;;4.57;2.95;;;;;;;12.14;44.27;101021.09;3536501;40;20046;-74
2021/05/27 01:16:21;;;;;;;4.97;3.35;;;;;;;12.16;44.49;101021.81;3548475;40;20359;-74
2021/05/27 01:18:50;;;;;;;5.00;3.45;;;;;;;12.15;44.55;101022.81;3548165;40;20062;-74
2021/05/27 01:21:18;;;;;;;5.97;3.83;;;;;;;12.14;44.31;101021.09;3547231;40;20054;-74
2021/05/27 01:23:47;;;;;;;5.18;3.08;;;;;;;12.15;44.29;101024.69;3545293;40;20412;-74
2021/05/27 01:26:15;;;;;;;7.00;3.92;;;;;;;12.12;44.08;101019.47;3539503;40;20160;-74
2021/05/27 01:28:42;;;;;;;5.53;3.55;;;;;;;12.12;44.43;101023.09;3548176;40;20117;-74
2021/05/27 01:31:11;;;;;;;4.32;3.35;;;;;;;12.13;44.37;101018.47;3546701;40;20422;-74
2021/05/27 01:33:39;;;;;;;5.43;3.53;;;;;;;12.11;44.32;101023.22;3547745;40;20043;-74
2021/05/27 01:36:10;;;;;;;5.47;3.58;;;;;;;12.12;44.65;101025.81;3538788;40;20613;-74
2021/05/27 01:38:39;;;;;;;6.05;3.67;;;;;;;12.11;44.33;101021.34;3547899;40;20132;-74
2021/05/27 01:41:11;;;;;;;5.80;3.88;;;;;;;12.13;44.52;101015.72;3548451;40;20070;-74
2021/05/27 01:43:39;;;;;;;5.43;3.63;;;;;;;12.11;44.36;101028.69;3547978;40;20069;-74
2021/05/27 01:46:06;;;;;;;5.35;3.42;;;;;;;12.10;44.39;101033.31;3544383;40;20057;-74
2021/05/27 01:48:34;;;;;;;4.50;3.35;;;;;;;12.08;44.41;101024.38;3547751;40;20132;-74
2021/05/27 01:51:06;;;;;;;5.72;3.63;;;;;;;12.06;44.66;101022.78;3543843;40;20066;-74
2021/05/27 01:53:34;;;;;;;6.28;3.55;;;;;;;12.06;44.50;101031.88;3546022;40;20090;-74
2021/05/27 01:56:05;;;;;;;5.95;3.50;;;;;;;12.06;44.28;101022.78;3547914;40;20410;-74
2021/05/27 01:58:34;;;;;;;5.47;3.35;;;;;;;12.06;44.15;101029.13;3538869;40;20062;-74
2021/05/27 02:01:03;;;;;;;5.70;3.60;;;;;;;12.03;44.71;101033.00;3538183;40;20370;-74
2021/05/27 02:03:36;;;;;;;4.80;3.30;;;;;;;12.01;44.43;101028.69;3544637;40;20323;-74
2021/05/27 02:06:18;;;;;;;5.65;3.55;;;;;;;11.99;44.62;101030.69;3535439;40;20053;-74
2021/05/27 02:11:50;;;;;;;5.00;3.08;;;;;;;11.98;44.31;101027.09;3541830;40;20080;-74
2021/05/27 02:14:22;;;;;;;4.95;3.55;;;;;;;11.98;44.57;101023.47;3546579;40;20392;-74
2021/05/27 02:16:50;;;;;;;4.68;3.05;;;;;;;11.97;44.32;101016.25;3547415;40;20140;-74
2021/05/27 02:19:17;;;;;;;5.40;3.22;;;;;;;11.97;44.38;101032.69;3538622;40;20057;-74
2021/05/27 02:21:50;;;;;;;5.03;3.00;;;;;;;11.95;44.48;101030.09;3536782;40;20058;-74
2021/05/27 02:24:23;;;;;;;4.97;3.30;;;;;;;11.96;44.89;101023.59;3543787;40;20431;-73
2021/05/27 02:26:53;;;;;;;6.50;3.45;;;;;;;11.96;44.68;101023.59;3542185;40;20061;-74
2021/05/27 02:29:22;;;;;;;5.57;3.45;;;;;;;11.98;44.59;101026.22;3545331;40;20051;-74
2021/05/27 02:31:52;;;;;;;4.88;3.50;;;;;;;11.94;44.52;101027.47;3545041;40;20392;-74
2021/05/27 02:34:21;;;;;;;4.80;3.03;;;;;;;11.94;44.74;101031.09;3548580;40;20403;-74
2021/05/27 02:36:49;;;;;;;4.70;3.20;;;;;;;11.93;44.40;101037.59;3546836;40;20428;-74
2021/05/27 02:40:08;;;;;;;5.28;3.60;;;;;;;11.92;45.02;101035.88;3548263;40;20155;-74
2021/05/27 02:42:37;;;;;;;6.38;3.78;;;;;;;11.90;44.81;101036.97;3536237;40;20066;-74
2021/05/27 02:45:08;;;;;;;5.50;3.38;;;;;;;11.93;44.80;101037.59;3549933;40;20124;-74
2021/05/27 02:47:42;;;;;;;5.60;3.35;;;;;;;11.90;45.05;101037.84;3542941;40;20089;-74
2021/05/27 02:50:13;;;;;;;5.45;3.60;;;;;;;11.91;44.61;101045.09;3548921;40;20064;-74
2021/05/27 02:52:41;;;;;;;5.10;3.13;;;;;;;11.91;45.01;101036.88;3547952;40;20054;-74
2021/05/27 02:55:10;;;;;;;4.25;3.00;;;;;;;11.91;45.18;101044.22;3549612;40;20072;-74
2021/05/27 02:57:38;;;;;;;5.40;3.42;;;;;;;11.93;44.95;101044.97;3549347;40;20296;-74
2021/05/27 03:00:09;;;;;;;5.18;3.53;;;;;;;11.96;45.25;101050.16;3546020;40;20038;-74
2021/05/27 03:02:52;;;;;;;5.75;3.60;;;;;;;11.93;45.23;101047.69;3539144;40;20314;-74
2021/05/27 03:05:21;;;;;;;5.70;3.70;;;;;;;11.95;45.39;101052.00;3547979;40;20066;-73
2021/05/27 03:07:54;;;;;;;5.55;3.80;;;;;;;11.96;45.51;101042.78;3540744;40;20047;-74
2021/05/27 03:10:22;;;;;;;6.20;4.22;;;;;;;11.97;45.01;101050.00;3540722;40;20046;-74
2021/05/27 03:12:51;;;;;;;7.57;3.88;;;;;;;11.97;45.17;101044.53;3543595;40;20050;-74
2021/05/27 03:15:23;;;;;;;5.55;3.90;;;;;;;11.97;45.32;101060.97;3546937;40;20043;-75
2021/05/27 03:17:51;;;;;;;5.35;3.90;;;;;;;11.96;45.35;101056.50;3541282;40;20058;-74
2021/05/27 03:20:19;;;;;;;6.45;4.18;;;;;;;11.96;45.52;101059.25;3548365;40;20081;-74
2021/05/27 03:22:47;;;;;;;5.82;4.32;;;;;;;11.96;45.59;101067.47;3549353;40;20046;-74
2021/05/27 03:25:18;;;;;;;6.32;3.90;;;;;;;11.97;45.58;101060.13;3549534;40;20049;-73
2021/05/27 03:27:49;;;;;;;5.57;4.00;;;;;;;11.97;45.70;101054.63;3550524;40;20054;-74
2021/05/27 03:30:19;;;;;;;7.20;4.40;;;;;;;11.98;45.67;101048.16;3540420;40;20041;-74
2021/05/27 03:32:51;;;;;;;6.23;4.30;;;;;;;11.97;45.88;101057.38;3547102;40;20054;-74
2021/05/27 03:35:19;;;;;;;7.53;5.53;;;;;;;11.98;45.88;101059.97;3547563;40;20058;-74
2021/05/27 03:37:48;;;;;;;8.60;5.50;;;;;;;11.98;45.77;101062.72;3538625;40;20033;-74
2021/05/27 03:40:21;;;;;;;8.98;5.78;;;;;;;11.96;45.88;101061.13;3546896;40;20047;-74
2021/05/27 03:42:52;;;;;;;9.75;6.68;;;;;;;11.99;46.04;101064.47;3547547;40;20038;-74
2021/05/27 03:45:22;;;;;;;9.32;6.68;;;;;;;11.99;46.16;101060.84;3548326;40;20061;-74
2021/05/27 03:48:12;;;;;;;8.85;5.32;;;;;;;11.98;45.74;101070.06;3548222;40;20135;-74
2021/05/27 03:50:41;;;;;;;8.93;6.03;;;;;;;11.99;45.84;101066.34;3546774;40;20046;-74
2021/05/27 03:53:13;;;;;;;9.00;6.03;;;;;;;11.96;45.89;101067.47;3539354;40;20054;-74
2021/05/27 03:55:45;;;;;;;8.50;5.65;;;;;;;11.98;45.81;101070.94;3549282;40;20054;-74
2021/05/27 04:01:02;;;;;;;10.68;6.45;;;;;;;11.98;45.81;101075.56;3536307;40;20042;-74
2021/05/27 04:09:22;;;;;;;9.15;6.25;;;;;;;11.96;45.96;101078.44;3537104;40;20402;-74
2021/05/27 04:11:49;;;;;;;11.45;6.72;;;;;;;11.95;45.91;101076.69;3548219;40;20050;-74
2021/05/27 04:14:17;;;;;;;8.73;6.43;;;;;;;11.96;45.88;101077.56;3547864;40;20443;-74
2021/05/27 04:16:45;;;;;;;9.48;6.53;;;;;;;11.96;45.95;101083.03;3548187;40;20057;-74
2021/05/27 04:19:34;;;;;;;8.75;5.97;;;;;;;11.95;45.79;101084.03;3546410;40;20054;-74
2021/05/27 04:22:23;;;;;;;10.00;6.28;;;;;;;11.94;45.70;101085.91;3539857;40;20392;-80
2021/05/27 04:25:14;;;;;;;8.82;6.15;;;;;;;11.95;45.85;101084.91;3548533;40;20052;-74
2021/05/27 04:28:02;;;;;;;10.40;6.00;;;;;;;11.95;46.01;101089.53;3548055;40;20082;-74
2021/05/27 04:33:24;;;;;;;9.75;6.10;;;;;;;11.94;45.55;101093.28;3548626;40;20568;-74
2021/05/27 04:35:53;;;;;;;8.00;5.03;;;;;;;11.95;45.65;101095.88;3548784;40;20092;-74
2021/05/27 04:38:20;;;;;;;7.20;4.38;;;;;;;11.94;45.94;101098.75;3548653;40;20066;-74
2021/05/27 04:40:48;;;;;;;6.72;4.03;;;;;;;11.95;45.87;101095.00;3546911;40;20042;-74
2021/05/27 04:43:18;;;;;;;7.93;4.18;;;;;;;11.94;45.75;101098.75;3548078;40;20296;-74
2021/05/27 04:45:46;;;;;;;6.82;3.95;;;;;;;11.92;46.04;101109.88;3547021;40;20066;-74
2021/05/27 04:48:15;;;;;;;7.10;3.67;;;;;;;11.92;45.76;101103.53;3538962;40;20057;-74
2021/05/27 04:50:45;;;;;;;6.80;3.75;;;;;;;11.93;45.95;101103.41;3545624;40;20050;-74
2021/05/27 04:53:14;;;;;;;7.50;3.90;;;;;;;11.93;45.73;101113.50;3547598;40;20404;-73
2021/05/27 04:55:42;;;;;;;5.03;3.50;;;;;;;11.92;45.86;101109.88;3547730;40;20062;-73
2021/05/27 04:58:10;;;;;;;8.57;3.88;;;;;;;11.90;45.57;101111.84;3548748;40;20053;-74
2021/05/27 05:00:38;;;;;;;5.50;3.70;;;;;;;11.90;45.95;101114.59;3547663;40;20300;-73
2021/05/27 05:03:06;;;;;;;6.32;3.78;;;;;;;11.89;46.00;101123.81;3546593;40;20053;-74
2021/05/27 05:05:36;;;;;;;7.70;3.97;;;;;;;11.90;45.65;101116.47;3547446;40;20358;-74
2021/05/27 05:08:05;;;;;;;7.07;4.18;;;;;;;11.89;45.56;101123.81;3546873;40;20387;-73
2021/05/27 05:10:35;;;;;;;7.65;3.85;;;;;;;11.89;45.29;101122.94;3546301;40;20140;-74
2021/05/27 05:13:05;;;;;;;7.97;4.00;;;;;;;11.87;45.71;101123.06;3548226;40;20140;-74
2021/05/27 05:15:38;;;;;;;6.65;3.60;;;;;;;11.86;45.64;101129.56;3548255;40;20046;-74
2021/05/27 05:18:07;;;;;;;;;;;;;;;11.57;46.55;101129.38;3549402;40;20129;-74
2021/05/27 05:20:37;;;;;;;5.88;3.33;;;;;;;11.80;45.58;101127.34;3546944;40;20145;-74
2021/05/27 05:23:07;;;;;;;7.18;3.55;;;;;;;11.82;45.69;101133.59;3545940;40;20065;-74
2021/05/27 05:25:38;;;;;;;12.32;4.10;;;;;;;11.82;45.93;101122.63;3543617;40;20046;-74
2021/05/27 05:28:07;;;;;;;6.07;3.75;;;;;;;11.80;46.25;101135.56;3547795;40;20054;-74
2021/05/27 05:30:36;;;;;;;6.53;3.63;;;;;;;11.81;45.88;101129.09;3533004;40;20046;-74
2021/05/27 05:33:05;;;;;;;6.88;3.78;;;;;;;11.81;46.28;101126.34;3539225;40;20062;-73
2021/05/27 05:35:33;;;;;;;7.13;3.97;;;;;;;11.81;46.00;101129.09;3546390;40;20046;-74
2021/05/27 05:38:01;;;;;;;6.25;3.47;;;;;;;11.80;46.39;101135.56;3547782;40;20057;-74
2021/05/27 05:40:30;;;;;;;8.18;3.85;;;;;;;11.81;46.29;101137.31;3546600;40;20195;-74
2021/05/27 05:43:02;;;;;;;7.88;4.20;;;;;;;11.81;46.34;101141.94;3548322;40;20054;-74
2021/05/27 05:46:01;;;;;;;7.23;4.10;;;;;;;11.77;46.28;101145.97;3551315;40;20610;-74
2021/05/27 05:48:30;;;;;;;8.10;4.38;;;;;;;11.78;46.31;101144.94;3545380;40;20301;-74
2021/05/27 05:51:02;;;;;;;5.17;3.77;;;;;;;11.75;46.09;101153.44;3546249;40;20046;-74
2021/05/27 05:53:29;;;;;;;6.57;3.70;;;;;;;11.75;46.22;101157.06;3548388;40;20305;-75
2021/05/27 05:55:58;;;;;;;7.45;4.22;;;;;;;11.74;46.04;101157.19;3537782;40;20061;-74
2021/05/27 05:58:28;;;;;;;5.70;3.83;;;;;;;11.72;46.22;101160.03;3547943;40;20050;-76
2021/05/27 06:00:56;;;;;;;5.68;3.60;;;;;;;11.70;46.09;101152.94;3537682;40;20051;-74
2021/05/27 06:03:25;;;;;;;7.32;3.85;;;;;;;11.67;46.03;101156.84;3547994;40;20058;-74
2021/05/27 06:06:10;;;;;;;7.25;3.70;;;;;;;11.63;46.37;101167.19;3538237;40;20046;-74
2021/05/27 06:08:41;;;;;;;6.30;3.35;;;;;;;11.61;46.18;101171.91;3538404;40;20604;-74
2021/05/27 06:11:13;;;;;;;7.00;3.83;;;;;;;11.55;45.91;101164.22;3544309;40;20053;-73
2021/05/27 06:13:41;;;;;;;7.72;3.70;;;;;;;11.56;46.06;101165.97;3538490;40;20054;-73
2021/05/27 06:16:09;;;;;;;7.25;3.75;;;;;;;11.51;46.17;101176.47;3548528;40;20085;-73
2021/05/27 06:18:37;;;;;;;6.97;3.65;;;;;;;11.50;46.06;101176.59;3548247;40;20342;-73
2021/05/27 06:21:22;;;;;;;6.25;3.25;;;;;;;11.45;46.32;101181.56;3548650;40;20315;-73
2021/05/27 06:23:51;;;;;;;6.57;3.70;;;;;;;11.45;46.30;101170.63;3541298;40;20050;-73
2021/05/27 06:26:19;;;;;;;5.70;3.35;;;;;;;11.42;46.20;101176.38;3547383;40;20054;-75
2021/05/27 06:28:48;;;;;;;5.55;3.47;;;;;;;11.42;46.63;101180.00;3549475;40;20033;-75
2021/05/27 06:31:16;;;;;;;7.55;4.43;;;;;;;11.40;46.54;101183.84;3548882;40;20074;-76
2021/05/27 06:33:54;;;;;;;8.27;3.25;;;;;;;11.43;47.44;101189.09;3541870;40;20132;-78
2021/05/27 06:36:24;;;;;;;7.65;3.95;;;;;;;11.39;46.66;101187.59;3538518;40;20035;-76
2021/05/27 06:39:00;;;;;;;6.57;3.42;;;;;;;11.39;46.81;101195.81;3549629;40;20058;-75
2021/05/27 06:41:29;;;;;;;5.53;3.28;;;;;;;11.39;46.96;101191.19;3547976;40;20292;-76
2021/05/27 06:43:58;;;;;;;8.45;3.72;;;;;;;11.40;46.95;101198.41;3548490;40;20057;-76
2021/05/27 06:46:27;;;;;;;7.32;3.50;;;;;;;11.39;47.11;101193.94;3548305;40;20092;-76
2021/05/27 06:48:56;;;;;;;6.45;3.45;;;;;;;11.40;47.16;101195.69;3540296;40;20359;-76
2021/05/27 06:51:24;;;;;;;8.40;3.90;;;;;;;11.42;47.18;101201.03;3546911;40;20054;-76
2021/05/27 06:53:52;;;;;;;9.50;4.18;;;;;;;11.43;47.07;101197.31;3547008;40;20133;-77
2021/05/27 06:56:23;;;;;;;5.72;3.38;;;;;;;11.44;47.11;101199.03;3544415;40;20062;-76
2021/05/27 06:58:51;;;;;;;6.80;3.83;;;;;;;11.45;47.45;101196.16;3549047;40;20060;-75
2021/05/27 07:01:20;;;;;;;6.47;4.05;;;;;;;11.47;47.17;101204.25;3546277;40;20404;-75
2021/05/27 07:03:48;;;;;;;10.48;5.05;;;;;;;11.47;47.18;101204.25;3547006;40;20501;-75
2021/05/27 07:06:16;;;;;;;9.25;5.55;;;;;;;11.47;47.57;101202.38;3544189;40;20054;-75
2021/05/27 07:08:44;;;;;;;11.70;6.80;;;;;;;11.48;47.30;101206.84;3549001;40;20041;-75
2021/05/27 07:11:12;;;;;;;10.63;7.35;;;;;;;11.49;46.85;101205.00;3548654;40;20051;-74
2021/05/27 07:13:40;;;;;;;12.00;7.32;;;;;;;11.50;47.29;101212.22;3546544;40;20329;-74
2021/05/27 07:16:08;;;;;;;12.98;7.70;;;;;;;11.49;47.30;101208.59;3548614;40;20050;-75
2021/05/27 07:18:39;;;;;;;10.20;6.72;;;;;;;11.50;47.58;101206.72;3547995;40;20056;-74
2021/05/27 07:21:09;;;;;;;9.95;6.07;;;;;;;11.50;47.30;101215.81;3549010;40;20049;-74
2021/05/27 07:23:37;;;;;;;9.20;5.22;;;;;;;11.52;47.40;101221.19;3539149;40;20058;-76
2021/05/27 07:26:05;;;;;;;7.00;4.13;;;;;;;11.52;47.06;101211.09;3547507;40;20072;-75
2021/05/27 07:28:33;;;;;;;8.15;4.43;;;;;;;11.53;47.33;101218.28;3547694;40;20204;-74
2021/05/27 07:31:01;;;;;;;6.88;4.25;;;;;;;11.53;47.27;101220.16;3541790;40;20107;-74
2021/05/27 07:33:29;;;;;;;7.35;3.80;;;;;;;11.54;47.41;101219.16;3549443;40;20362;-74
2021/05/27 07:35:58;;;;;;;8.98;4.78;;;;;;;11.56;47.57;101222.66;3548562;40;20046;-75
2021/05/27 07:38:26;;;;;;;9.82;5.38;;;;;;;11.56;47.62;101223.50;3548586;40;20050;-75
2021/05/27 07:40:54;;;;;;;9.43;5.78;;;;;;;11.58;47.78;101228.88;3548391;40;20058;-74
2021/05/27 07:43:22;;;;;;;11.48;6.10;;;;;;;11.59;47.83;101225.13;3546580;40;20075;-75
2021/05/27 07:45:50;;;;;;;10.02;5.38;;;;;;;11.60;47.75;101232.34;3539217;40;20416;-76
2021/05/27 07:48:18;;;;;;;11.85;6.35;;;;;;;11.62;47.82;101224.84;3547533;40;20101;-75
2021/05/27 07:50:45;;;;;;;10.85;5.50;;;;;;;11.62;47.91;101231.22;3548653;40;20082;-74
2021/05/27 07:53:16;;;;;;;8.45;5.50;;;;;;;11.65;47.52;101235.56;3547542;40;20049;-75
2021/05/27 07:55:45;;;;;;;11.35;6.07;;;;;;;11.63;47.71;101230.22;3549113;40;20063;-74
2021/05/27 07:58:13;;;;;;;7.82;4.78;;;;;;;11.64;47.63;101231.94;3548868;40;20144;-75
2021/05/27 08:00:41;;;;;;;7.03;3.67;;;;;;;11.65;47.71;101235.56;3548817;40;20078;-74
2021/05/27 08:03:10;;;;;;;7.05;3.15;;;;;;;11.64;47.83;101234.69;3545032;40;20061;-73
2021/05/27 08:05:40;;;;;;;6.18;2.90;;;;;;;11.64;47.96;101240.19;3547016;40;20047;-74
2021/05/27 08:08:08;;;;;;;9.27;3.53;;;;;;;11.65;47.65;101238.31;3548984;40;20046;-73
2021/05/27 08:10:37;;;;;;;8.02;3.22;;;;;;;11.66;47.54;101248.28;3547685;40;20339;-74
2021/05/27 08:13:06;;;;;;;6.53;3.55;;;;;;;11.66;47.59;101234.56;3545842;40;20050;-74
2021/05/27 08:15:34;;;;;;;5.88;2.88;;;;;;;11.66;48.01;101238.19;3548011;40;20056;-74
2021/05/27 08:18:01;;;;;;;6.43;3.47;;;;;;;11.66;47.61;101245.53;3547195;40;20058;-73
2021/05/27 08:20:29;;;;;;;7.07;3.45;;;;;;;11.67;48.04;101244.53;3541829;40;20053;-72
2021/05/27 08:22:57;;;;;;;7.13;4.00;;;;;;;11.67;47.86;101244.53;3547352;40;20046;-73
2021/05/27 08:25:44;;;;;;;7.25;3.75;;;;;;;11.69;47.85;101248.00;3548297;40;20072;-72
2021/05/27 08:28:12;;;;;;;7.40;4.00;;;;;;;11.66;47.68;101251.88;3547305;40;20049;-74
2021/05/27 08:30:40;;;;;;;7.05;4.28;;;;;;;11.65;47.88;101250.13;3546021;40;20505;-73
2021/05/27 08:33:08;;;;;;;6.45;3.35;;;;;;;11.65;48.20;101261.09;3545557;40;20091;-72
2021/05/27 08:35:37;;;;;;;5.75;2.90;;;;;;;11.65;48.20;101255.63;3547233;40;20304;-73
2021/05/27 08:38:05;;;;;;;4.43;2.72;;;;;;;11.66;47.69;101253.75;3548398;40;20062;-74
2021/05/27 08:40:36;;;;;;;6.07;3.00;;;;;;;11.65;48.25;101252.88;3546091;40;20344;-72
2021/05/27 08:43:06;;;;;;;4.82;2.30;;;;;;;11.68;48.47;101253.63;3544731;40;20058;-72
2021/05/27 08:45:36;;;;;;;5.43;2.47;;;;;;;11.68;48.20;101253.63;3545290;40;20050;-73
2021/05/27 08:48:11;;;;;;;4.32;2.58;;;;;;;11.69;48.26;101264.44;3547822;40;20380;-73
2021/05/27 08:50:44;;;;;;;4.30;2.50;;;;;;;11.70;48.18;101254.34;3542906;40;20054;-74
2021/05/27 08:53:13;;;;;;;6.28;3.00;;;;;;;11.70;48.06;101265.31;3543594;40;20057;-73
2021/05/27 08:55:41;;;;;;;5.75;2.70;;;;;;;11.70;48.04;101260.69;3547813;40;20054;-73
2021/05/27 08:58:10;;;;;;;6.38;2.63;;;;;;;11.72;47.97;101269.66;3547881;40;20128;-75
2021/05/27 09:00:38;;;;;;;5.93;2.80;;;;;;;11.70;48.18;101265.31;3548721;40;20038;-73
2021/05/27 09:03:09;;;;;;;6.78;3.28;;;;;;;11.72;48.48;101269.66;3546573;40;20054;-75
2021/05/27 09:05:40;;;;;;;3.72;2.35;;;;;;;11.73;48.52;101267.81;3547267;40;20062;-75
2021/05/27 09:08:10;;;;;;;5.60;2.90;;;;;;;11.74;48.42;101275.03;3538993;40;20050;-73
2021/05/27 09:10:40;;;;;;;4.68;2.65;;;;;;;11.75;48.37;101271.28;3547761;40;20148;-74
2021/05/27 09:13:11;;;;;;;4.82;2.60;;;;;;;11.75;48.41;101277.63;3535814;40;20050;-74
2021/05/27 09:15:39;;;;;;;5.90;2.85;;;;;;;11.75;48.20;101282.25;3546677;40;20058;-74
2021/05/27 09:18:08;;;;;;;6.72;3.13;;;;;;;11.76;48.36;101284.88;3543412;40;20053;-73
2021/05/27 09:20:37;;;;;;;6.22;3.75;;;;;;;11.77;48.39;101283.00;3545066;40;20054;-74
2021/05/27 09:23:08;;;;;;;5.28;2.83;;;;;;;11.77;48.13;101289.31;3548115;40;20056;-74
2021/05/27 09:25:37;;;;;;;4.95;2.78;;;;;;;11.75;48.03;101298.69;3547571;40;20050;-74
2021/05/27 09:28:07;;;;;;;5.80;2.83;;;;;;;11.73;48.17;101300.69;3545398;40;20076;-73
2021/05/27 09:30:44;;;;;;;4.68;3.05;;;;;;;11.75;49.11;101302.31;3545510;40;20055;-73
2021/05/27 09:33:13;;;;;;;5.65;3.10;;;;;;;11.72;48.31;101301.69;3542706;40;20058;-74
2021/05/27 09:35:42;;;;;;;6.30;2.95;;;;;;;11.73;48.70;101306.16;3548411;40;20493;-74
2021/05/27 09:38:11;;;;;;;6.40;3.45;;;;;;;11.73;48.36;101311.66;3546851;40;20131;-73
2021/05/27 09:40:42;;;;;;;6.50;3.42;;;;;;;11.72;48.45;101308.03;3544782;40;20086;-73
2021/05/27 09:43:12;;;;;;;6.07;3.28;;;;;;;11.73;48.54;101307.03;3546215;40;20054;-73
2021/05/27 09:45:40;;;;;;;6.85;3.95;;;;;;;11.72;48.84;101309.91;3547737;40;20057;-73
2021/05/27 09:48:24;;;;;;;6.78;3.88;;;;;;;11.75;49.10;101315.13;3548432;40;20046;-74
2021/05/27 09:50:55;;;;;;;6.03;3.88;;;;;;;11.73;48.75;101318.00;3545251;40;20120;-73
2021/05/27 09:53:26;;;;;;;7.55;3.97;;;;;;;11.73;48.63;101319.88;3545994;40;20404;-72
2021/05/27 09:55:54;;;;;;;8.50;4.65;;;;;;;11.73;48.49;101322.63;3546879;40;20403;-72
2021/05/27 09:58:23;;;;;;;8.43;5.30;;;;;;;11.74;48.82;101321.63;3549867;40;20162;-73
2021/05/27 10:00:52;;;;;;;8.45;5.15;;;;;;;11.72;48.83;101323.59;3547681;40;20086;-73
2021/05/27 10:03:41;;;;;;;7.32;4.55;;;;;;;11.72;49.10;101319.00;3546524;40;20042;-73
2021/05/27 10:06:10;;;;;;;7.03;4.53;;;;;;;11.74;49.24;101332.56;3546225;40;20462;-73
2021/05/27 10:08:52;;;;;;;7.13;4.38;;;;;;;11.78;49.29;101326.69;3548281;40;20054;-74
2021/05/27 10:11:23;;;;;;;8.13;4.72;;;;;;;11.78;49.09;101325.81;3547048;40;20284;-73
2021/05/27 10:13:54;;;;;;;8.95;4.93;;;;;;;11.77;49.46;101335.06;3547758;40;20046;-72
2021/05/27 10:16:23;;;;;;;8.38;4.65;;;;;;;11.80;49.13;101332.94;3536519;40;20419;-73
2021/05/27 10:18:54;;;;;;;7.60;4.63;;;;;;;11.86;49.53;101334.28;3547540;40;20062;-74
2021/05/27 10:21:23;;;;;;;6.55;4.30;;;;;;;11.86;49.33;101323.31;3543146;40;20074;-73
2021/05/27 10:23:51;;;;;;;6.22;3.85;;;;;;;11.89;48.88;101334.03;3543552;40;20054;-74
2021/05/27 10:26:20;;;;;;;7.35;4.20;;;;;;;11.91;49.23;101332.06;3547553;40;20049;-74
2021/05/27 10:29:09;;;;;;;7.43;3.95;;;;;;;11.93;49.30;101338.28;3534343;40;20070;-73
2021/05/27 10:31:45;;;;;;;7.90;3.58;;;;;;;11.96;48.87;101344.38;3544589;40;20050;-74
2021/05/27 10:34:42;;;;;;;7.22;3.90;;;;;;;11.99;49.63;101343.25;3534686;40;20051;-75
2021/05/27 10:37:10;;;;;;;7.28;3.75;;;;;;;11.96;49.08;101336.16;3543637;40;20050;-74
2021/05/27 10:39:40;;;;;;;8.15;4.82;;;;;;;11.99;49.05;101354.22;3548305;40;20058;-75
2021/05/27 10:42:09;;;;;;;9.40;5.03;;;;;;;11.98;48.94;101345.13;3546418;40;20391;-74
2021/05/27 10:45:08;;;;;;;6.78;4.22;;;;;;;12.00;49.25;101353.22;3547432;40;20058;-74
2021/05/27 10:47:36;;;;;;;8.10;3.90;;;;;;;11.97;49.08;101348.84;3545763;40;20054;-75
2021/05/27 10:50:07;;;;;;;7.88;4.72;;;;;;;12.00;49.14;101336.78;3547813;40;20407;-74
2021/05/27 10:52:44;;;;;;;6.65;4.07;;;;;;;12.01;49.08;101352.22;3548863;40;20057;-74
2021/05/27 10:55:53;;;;;;;7.05;4.07;;;;;;;11.95;49.43;101350.84;3540444;40;20042;-74
2021/05/27 10:59:10;;;;;;;6.60;3.65;;;;;;;12.00;49.45;101347.75;3548023;40;20043;-74
2021/05/27 11:02:03;;;;;;;6.07;3.35;;;;;;;11.99;49.53;101348.75;3531775;40;20132;-73
2021/05/27 11:04:40;;;;;;;6.13;3.60;;;;;;;12.00;49.11;101350.47;3538897;40;20062;-74
2021/05/27 11:07:15;;;;;;;6.95;4.10;;;;;;;12.05;49.51;101356.44;3549186;40;20391;-74
2021/05/27 11:09:45;;;;;;;6.60;3.80;;;;;;;12.06;48.73;101354.56;3549691;40;20058;-74
2021/05/27 11:12:22;;;;;;;5.65;3.50;;;;;;;12.08;49.17;101355.31;3539968;40;20133;-73
2021/05/27 11:15:15;;;;;;;5.93;3.20;;;;;;;12.03;49.36;101356.56;3550252;40;20054;-73
2021/05/27 11:17:58;;;;;;;7.53;3.70;;;;;;;12.03;48.73;101352.94;3547385;40;20041;-73
2021/05/27 11:20:29;;;;;;;7.32;3.33;;;;;;;12.05;49.16;101348.22;3543728;40;20266;-76
2021/05/27 11:23:10;;;;;;;6.18;3.92;;;;;;;12.09;49.29;101346.97;3546167;40;20046;-73
2021/05/27 11:25:41;;;;;;;6.95;3.50;;;;;;;12.07;48.76;101365.41;3539267;40;20066;-73
2021/05/27 11:28:26;;;;;;;7.78;3.42;;;;;;;12.10;49.54;101365.13;3548866;40;20046;-73
2021/05/27 11:30:57;;;;;;;5.85;2.97;;;;;;;12.09;48.96;101365.28;3547973;40;20312;-73
2021/05/27 11:33:36;;;;;;;6.82;3.63;;;;;;;12.14;49.12;101366.63;3547413;40;20379;-73
2021/05/27 11:36:18;;;;;;;5.45;3.25;;;;;;;12.14;49.37;101363.00;3546766;40;20050;-73
2021/05/27 11:38:47;;;;;;;6.72;3.42;;;;;;;12.11;48.98;101372.34;3547193;40;20558;-73
2021/05/27 11:41:19;;;;;;;7.43;3.75;;;;;;;12.17;48.89;101374.59;3539663;40;20054;-72
2021/05/27 11:43:49;;;;;;;10.88;4.93;;;;;;;12.18;49.10;101376.34;3548469;40;20046;-73
2021/05/27 11:46:19;;;;;;;7.75;3.85;;;;;;;12.18;49.03;101380.97;3549992;40;20152;-74
2021/05/27 11:48:57;;;;;;;6.47;4.22;;;;;;;12.18;48.76;101386.44;3546879;40;20532;-75
2021/05/27 11:51:28;;;;;;;7.32;4.78;;;;;;;12.19;48.82;101382.69;3545346;40;20070;-74
2021/05/27 11:53:58;;;;;;;8.25;4.70;;;;;;;12.19;48.88;101386.28;3540132;40;20058;-73
2021/05/27 11:56:37;;;;;;;8.13;4.72;;;;;;;12.20;48.88;101381.69;3548359;40;20065;-74
2021/05/27 11:59:07;;;;;;;7.55;4.57;;;;;;;12.18;48.66;101390.06;3538312;40;20137;-74